Aérodrome :
LOGIN :

S'inscrire | Disclaimer

   EN    FR    IT 

 










Légende :    VFR   VFR Marginal   IFR   IFR Intensif   IFR Très Intensif
Visi : 
Plafond : 
>= 8 km
>= 3000ft
5 à 8 km
1000 à 3000 ft
1500m à 5 km
500 à 1000 ft
800 à 1500m
200 à 500 ft
< 800m
< 200 ft
Symboles :   Orages  Brouillard  Fortes neiges  Fortes précipitations  Vent > 20 kt
SIGMETs :   Divers  Orages  Givrage  Turbulence  Onde Orograph.  Cendres Volcan.






- Altitude de l'aérodrome : 135 ft
- Code IATA : EDI


EGPH - Edinburgh

DERNIER METAR :
  • 101050Z 20031G41KT 9999 -RA FEW024 11/08 Q0989

METARs EXPIRÉS :
  • 101020Z 19027G41KT 9999 -RA FEW024 11/08 Q0989
  • 100950Z 20026G36KT 9999 -RA FEW022 10/08 Q0991
  • 100920Z 20026G43KT 9999 -RA FEW022 10/07 Q0992
  • 100850Z 21022KT 9999 -RA FEW024 09/07 Q0994
  • 100820Z 20024G34KT 9999 -RA FEW024 09/07 Q0995

TAF TAF EGPH
Valide du 10 à 06h jusqu'au 11 à 06h UTC


100459Z 1006/1106 20022G34KT 9999 FEW030
TEMPO 1006/1016 6000 RA BKN014
PROB40
TEMPO 1006/1016 22028G48KT
PROB40
TEMPO 1010/1014 4000 RADZ
BECMG 1014/1016 25017KT
PROB30
TEMPO 1014/1016 3000 +RA BKN009
PROB40
TEMPO 1016/1106 25020G30KT 7000 SHRA BKN012
ATIS : +44 131 339 2823



MET'MAP, la Météo Aéronautique d'un coup d'oeil ! - Copyright ORBIFLY Décembre 2007 - Disclaimer

ORBIFLY MET'MAP TEAM :

Programmation & Développement : Alexandra Zaïnal
Sur une idée originale de : Baudouin d'Aumeries
Assistance à la programmation : Marc-Olivier Méhu
Soutien technique & logistique : Manuel Goepfert

Contact : metmap@orbifly.com




SOURCES & CREDITS :

   NOAA